Time;durP1;ratioP1;P1;durP2;ratioP2;P2;SDS_P1;SDS_P2;PMS_P1;PMS_P2;Temp;Humidity;BMP_temperature;BMP_pressure;BME280_temperature;BME280_humidity;BME280_pressure;Samples;Min_cycle;Max_cycle;Signal;HPM_P1;HPM_P2
2022/05/14 00:01:04;;;;;;;12.10;6.10;;;20.90;58.60;;;;;;5039299;28;20072;-68
2022/05/14 00:03:31;;;;;;;13.13;6.18;;;20.90;57.70;;;;;;5043543;28;20520;-68
2022/05/14 00:05:58;;;;;;;10.70;5.07;;;20.90;57.50;;;;;;5038897;28;20532;-68
2022/05/14 00:08:24;;;;;;;12.40;5.47;;;20.90;57.40;;;;;;5039323;28;20017;-68
2022/05/14 00:13:34;;;;;;;12.20;6.13;;;20.80;57.30;;;;;;5039550;28;20084;-68
2022/05/14 00:16:00;;;;;;;10.43;5.32;;;20.80;57.40;;;;;;5040622;28;20072;-68
2022/05/14 00:18:26;;;;;;;10.80;5.20;;;20.80;57.40;;;;;;5035490;28;20033;-68
2022/05/14 00:20:52;;;;;;;10.88;5.80;;;20.80;57.50;;;;;;5039783;28;20049;-68
2022/05/14 00:23:18;;;;;;;10.77;5.18;;;20.80;57.50;;;;;;5039685;28;20056;-68
2022/05/14 00:25:43;;;;;;;10.77;5.35;;;20.80;57.50;;;;;;5038238;28;20029;-68
2022/05/14 00:28:09;;;;;;;11.43;5.50;;;20.80;57.50;;;;;;5036028;28;20029;-68
2022/05/14 00:30:36;;;;;;;11.02;5.30;;;20.80;57.60;;;;;;5043713;28;20450;-68
2022/05/14 00:33:02;;;;;;;10.38;4.80;;;20.70;57.50;;;;;;5035294;28;20064;-67
2022/05/14 00:35:27;;;;;;;12.85;5.63;;;20.70;57.40;;;;;;5035854;28;20107;-68
2022/05/14 00:37:53;;;;;;;10.98;5.53;;;20.70;57.40;;;;;;5039398;28;20045;-68
2022/05/14 00:40:26;;;;;;;10.75;5.15;;;20.70;57.40;;;;;;5037718;28;20021;-68
2022/05/14 00:42:52;;;;;;;11.80;5.63;;;20.70;57.40;;;;;;5040009;28;20106;-68
2022/05/14 00:45:18;;;;;;;10.50;5.55;;;20.70;57.50;;;;;;5054780;28;20084;-68
2022/05/14 00:47:46;;;;;;;12.60;5.20;;;20.70;57.40;;;;;;5044575;28;20568;-68
2022/05/14 00:50:17;;;;;;;9.85;5.00;;;20.60;57.40;;;;;;5048762;28;20378;-68
2022/05/14 00:52:44;;;;;;;11.63;5.35;;;20.70;57.50;;;;;;5039603;28;20091;-68
2022/05/14 00:55:10;;;;;;;10.00;5.07;;;20.60;57.40;;;;;;5036145;28;20107;-68
2022/05/14 00:57:37;;;;;;;10.07;4.78;;;20.60;57.40;;;;;;5045869;28;20083;-68
2022/05/14 01:00:09;;;;;;;8.65;4.70;;;20.60;57.40;;;;;;5047587;28;20025;-68
2022/05/14 01:02:35;;;;;;;9.57;4.70;;;20.60;57.40;;;;;;5043166;28;20494;-68
2022/05/14 01:05:01;;;;;;;9.40;4.55;;;20.60;57.40;;;;;;5041082;28;20078;-68
2022/05/14 01:07:27;;;;;;;12.15;4.90;;;20.60;57.40;;;;;;5038835;28;20036;-68
2022/05/14 01:10:00;;;;;;;10.73;4.93;;;20.60;57.50;;;;;;5049010;28;20048;-68
2022/05/14 01:12:27;;;;;;;10.30;4.65;;;20.60;58.00;;;;;;5028689;28;20017;-68
2022/05/14 01:14:53;;;;;;;8.52;4.30;;;20.50;57.40;;;;;;5047969;28;20026;-68
2022/05/14 01:17:20;;;;;;;9.18;4.85;;;20.50;57.50;;;;;;5041370;28;20045;-68
2022/05/14 01:19:45;;;;;;;11.60;5.00;;;20.50;57.40;;;;;;5042191;28;20047;-68
2022/05/14 01:22:19;;;;;;;8.32;4.78;;;20.50;57.50;;;;;;5037892;28;20669;-68
2022/05/14 01:27:49;;;;;;;8.90;4.30;;;20.50;57.40;;;;;;5026446;28;20039;-68
2022/05/14 01:30:16;;;;;;;8.95;4.68;;;20.50;57.50;;;;;;5054026;28;20033;-68
2022/05/14 01:32:41;;;;;;;9.73;4.57;;;20.40;57.40;;;;;;5049052;28;20033;-68
2022/05/14 01:35:08;;;;;;;8.55;4.55;;;20.40;57.50;;;;;;5040594;28;20509;-68
2022/05/14 01:37:34;;;;;;;9.70;4.45;;;20.40;57.40;;;;;;5037699;28;20514;-69
2022/05/14 01:40:00;;;;;;;8.45;4.10;;;20.40;57.40;;;;;;5043508;28;20092;-68
2022/05/14 01:42:26;;;;;;;9.57;4.75;;;20.40;57.40;;;;;;5035921;28;20025;-68
2022/05/14 01:44:51;;;;;;;8.57;4.57;;;20.40;57.40;;;;;;5045378;28;20070;-68
2022/05/14 01:47:17;;;;;;;9.50;4.50;;;20.40;57.50;;;;;;5042607;28;20642;-68
2022/05/14 01:49:44;;;;;;;9.13;4.47;;;20.40;57.50;;;;;;5044720;28;20047;-68
2022/05/14 01:52:09;;;;;;;9.25;4.53;;;20.40;57.50;;;;;;5043873;28;20032;-68
2022/05/14 01:54:35;;;;;;;9.80;4.70;;;20.40;57.40;;;;;;5038748;28;20154;-68
2022/05/14 01:57:01;;;;;;;8.60;4.47;;;20.40;57.50;;;;;;5041957;28;20061;-68
2022/05/14 01:59:26;;;;;;;7.82;3.80;;;20.40;57.50;;;;;;5049883;28;20675;-68
2022/05/14 02:01:52;;;;;;;9.25;4.68;;;20.30;57.50;;;;;;5043816;28;20056;-68
2022/05/14 02:04:18;;;;;;;9.13;4.45;;;20.30;57.40;;;;;;5038949;28;20104;-68
2022/05/14 02:06:44;;;;;;;8.23;4.00;;;20.30;57.50;;;;;;5045789;28;20116;-68
2022/05/14 02:09:11;;;;;;;8.73;4.00;;;20.30;57.50;;;;;;5048087;28;20116;-68
2022/05/14 02:11:37;;;;;;;8.07;4.18;;;20.30;58.60;;;;;;5036985;28;20029;-68
2022/05/14 02:14:03;;;;;;;8.85;4.10;;;20.30;57.60;;;;;;5039355;28;21127;-68
2022/05/14 02:16:28;;;;;;;9.05;4.13;;;20.30;57.60;;;;;;5048954;28;20075;-68
2022/05/14 02:18:54;;;;;;;8.55;4.68;;;20.30;57.60;;;;;;5038294;28;20037;-68
2022/05/14 02:21:24;;;;;;;8.38;3.92;;;20.20;57.60;;;;;;5041767;28;20083;-68
2022/05/14 02:23:50;;;;;;;8.43;4.50;;;20.20;57.60;;;;;;5037759;28;20524;-69
2022/05/14 02:26:17;;;;;;;8.32;4.47;;;20.20;57.60;;;;;;5046505;28;20056;-68
2022/05/14 02:28:42;;;;;;;9.73;4.38;;;20.20;57.60;;;;;;5042634;28;20567;-68
2022/05/14 02:31:08;;;;;;;8.40;4.10;;;20.20;57.60;;;;;;5037281;28;20035;-68
2022/05/14 02:33:34;;;;;;;7.72;3.83;;;20.20;57.60;;;;;;5041014;28;20112;-69
2022/05/14 02:36:00;;;;;;;8.18;4.10;;;20.20;57.70;;;;;;5043979;28;20494;-68
2022/05/14 02:38:28;;;;;;;8.63;4.20;;;20.20;57.70;;;;;;5037354;28;20043;-68
2022/05/14 02:40:54;;;;;;;8.02;4.00;;;20.20;57.70;;;;;;5042005;28;20044;-68
2022/05/14 02:43:19;;;;;;;8.23;3.92;;;20.20;57.70;;;;;;5041783;28;20413;-68
2022/05/14 02:45:45;;;;;;;8.18;3.90;;;20.20;57.70;;;;;;5042141;28;20529;-68
2022/05/14 02:48:11;;;;;;;7.95;3.90;;;20.10;57.60;;;;;;5046815;28;20489;-68
2022/05/14 02:50:37;;;;;;;7.32;3.65;;;20.10;57.70;;;;;;5046887;28;20457;-68
2022/05/14 02:53:03;;;;;;;8.73;4.10;;;20.20;57.70;;;;;;5038865;28;20033;-67
2022/05/14 02:55:30;;;;;;;7.72;3.90;;;20.10;57.70;;;;;;5039457;28;20021;-68
2022/05/14 02:57:56;;;;;;;8.35;4.07;;;20.10;57.70;;;;;;5038207;28;20469;-68
2022/05/14 03:00:21;;;;;;;8.07;4.07;;;20.10;57.70;;;;;;5039394;28;20127;-68
2022/05/14 03:02:47;;;;;;;7.35;3.75;;;20.00;57.70;;;;;;5037091;28;20034;-68
2022/05/14 03:05:14;;;;;;;7.80;3.80;;;20.00;57.70;;;;;;5045554;28;20426;-68
2022/05/14 03:07:40;;;;;;;8.63;4.10;;;20.10;57.70;;;;;;5042039;28;20025;-68
2022/05/14 03:10:06;;;;;;;7.85;3.80;;;20.00;57.70;;;;;;5042023;28;20516;-68
2022/05/14 03:12:32;;;;;;;7.07;3.80;;;20.00;57.70;;;;;;5033043;28;20052;-68
2022/05/14 03:15:00;;;;;;;7.43;3.83;;;20.00;57.70;;;;;;5039241;28;20021;-68
2022/05/14 03:17:26;;;;;;;7.50;3.65;;;20.00;57.70;;;;;;5038607;28;20045;-68
2022/05/14 03:19:52;;;;;;;7.72;4.00;;;20.00;57.70;;;;;;5038739;28;20691;-68
2022/05/14 03:22:18;;;;;;;7.43;3.80;;;20.00;57.70;;;;;;5043618;28;20095;-69
2022/05/14 03:24:43;;;;;;;8.30;3.60;;;20.00;57.70;;;;;;5035894;28;20040;-68
2022/05/14 03:27:13;;;;;;;7.35;3.40;;;20.00;57.70;;;;;;5033725;28;20108;-68
2022/05/14 03:29:39;;;;;;;6.63;3.55;;;20.00;57.70;;;;;;5039760;28;20037;-68
2022/05/14 03:32:05;;;;;;;8.18;3.88;;;20.00;57.70;;;;;;5042178;28;20082;-68
2022/05/14 03:34:32;;;;;;;6.43;3.30;;;19.90;57.60;;;;;;5036330;28;20033;-68
2022/05/14 03:36:57;;;;;;;7.90;3.78;;;19.90;57.60;;;;;;5034874;28;20433;-68
2022/05/14 03:39:23;;;;;;;7.65;3.38;;;19.90;57.60;;;;;;5043689;28;20083;-68
2022/05/14 03:41:49;;;;;;;8.00;3.70;;;19.90;57.60;;;;;;5037592;28;20024;-68
2022/05/14 03:44:15;;;;;;;8.73;3.60;;;19.90;57.60;;;;;;5034749;28;20084;-68
2022/05/14 03:46:42;;;;;;;6.88;3.50;;;19.90;57.60;;;;;;5036675;28;20083;-69
2022/05/14 03:49:08;;;;;;;8.13;3.83;;;19.90;57.60;;;;;;5032581;28;20395;-68
2022/05/14 03:51:34;;;;;;;7.85;3.50;;;19.90;57.60;;;;;;5036016;28;20028;-68
2022/05/14 03:54:00;;;;;;;6.95;3.70;;;19.90;57.60;;;;;;5038026;28;20083;-69
2022/05/14 03:56:26;;;;;;;7.13;3.55;;;19.80;57.70;;;;;;5034409;28;20021;-68
2022/05/14 03:58:51;;;;;;;7.03;3.30;;;19.80;57.60;;;;;;5033950;28;20084;-68
2022/05/14 04:01:18;;;;;;;7.38;3.70;;;19.80;57.60;;;;;;5037831;28;20017;-68
2022/05/14 04:03:44;;;;;;;7.63;3.83;;;19.80;57.60;;;;;;5043167;28;20091;-68
2022/05/14 04:06:10;;;;;;;7.85;3.53;;;19.80;57.60;;;;;;5033502;28;20037;-69
2022/05/14 04:08:36;;;;;;;6.97;3.30;;;19.80;57.60;;;;;;5050429;28;20051;-68
2022/05/14 04:11:02;;;;;;;7.35;3.40;;;19.80;57.60;;;;;;5031435;28;20013;-68
2022/05/14 04:13:28;;;;;;;6.03;3.17;;;19.80;57.70;;;;;;5039839;28;20075;-69
2022/05/14 04:15:53;;;;;;;5.60;2.97;;;19.80;57.70;;;;;;5033640;28;20108;-70
2022/05/14 04:18:24;;;;;;;6.78;3.13;;;19.80;57.80;;;;;;5040781;28;20496;-68
2022/05/14 04:20:57;;;;;;;6.97;3.25;;;19.80;57.70;;;;;;5038812;28;20025;-68
2022/05/14 04:23:23;;;;;;;7.05;3.25;;;19.80;57.80;;;;;;5044671;28;20144;-68
2022/05/14 04:25:50;;;;;;;6.68;3.17;;;19.70;57.70;;;;;;5047461;28;20070;-68
2022/05/14 04:28:16;;;;;;;6.70;3.22;;;19.70;57.70;;;;;;5038170;28;20029;-68
2022/05/14 04:30:42;;;;;;;6.63;3.20;;;19.70;57.70;;;;;;5039824;28;20047;-68
2022/05/14 04:33:08;;;;;;;7.18;3.20;;;19.70;57.70;;;;;;5050382;28;20071;-68
2022/05/14 04:35:34;;;;;;;6.85;3.20;;;19.70;57.90;;;;;;5041212;28;20030;-68
2022/05/14 04:37:59;;;;;;;6.03;3.20;;;19.70;57.80;;;;;;5039729;28;20091;-68
2022/05/14 04:40:25;;;;;;;7.28;3.30;;;19.70;57.80;;;;;;5034557;28;20108;-68
2022/05/14 04:42:51;;;;;;;7.47;3.20;;;19.70;57.80;;;;;;5040991;28;20032;-68
2022/05/14 04:45:17;;;;;;;6.82;3.17;;;19.70;57.90;;;;;;5046448;28;20037;-69
2022/05/14 04:47:43;;;;;;;5.65;2.97;;;19.60;57.70;;;;;;5034508;28;20083;-68
2022/05/14 04:50:09;;;;;;;7.82;3.40;;;19.60;57.80;;;;;;5037169;28;20017;-69
2022/05/14 04:52:35;;;;;;;6.22;3.17;;;19.60;57.80;;;;;;5036356;28;20418;-69
2022/05/14 04:55:01;;;;;;;6.70;2.97;;;19.70;57.90;;;;;;5037966;28;20025;-69
2022/05/14 04:57:27;;;;;;;6.22;3.00;;;19.60;57.90;;;;;;5036771;28;20123;-69
2022/05/14 04:59:54;;;;;;;7.00;3.50;;;19.60;57.70;;;;;;5042675;28;20044;-69
2022/05/14 05:05:04;;;;;;;5.27;2.90;;;19.60;57.70;;;;;;5041604;28;20040;-69
2022/05/14 05:07:30;;;;;;;6.05;2.95;;;19.60;58.70;;;;;;5034805;28;20108;-69
2022/05/14 05:09:56;;;;;;;6.05;2.90;;;19.60;57.80;;;;;;5041164;28;20108;-69
2022/05/14 05:12:21;;;;;;;7.63;3.28;;;19.60;58.80;;;;;;5035234;28;20056;-69
2022/05/14 05:14:47;;;;;;;5.00;2.97;;;19.60;57.80;;;;;;5037512;28;20044;-69
2022/05/14 05:17:13;;;;;;;4.97;2.45;;;19.60;57.80;;;;;;5036648;28;20045;-69
2022/05/14 05:19:38;;;;;;;7.15;3.10;;;19.60;57.80;;;;;;5039227;28;20047;-69
2022/05/14 05:22:04;;;;;;;4.95;2.65;;;19.60;57.70;;;;;;5040792;28;20119;-69
2022/05/14 05:24:30;;;;;;;6.18;3.08;;;19.50;57.90;;;;;;5035636;28;20288;-69
2022/05/14 05:26:56;;;;;;;6.90;3.17;;;19.50;57.80;;;;;;5039424;28;20032;-69
2022/05/14 05:29:21;;;;;;;6.63;3.00;;;19.50;57.80;;;;;;5039944;28;20108;-69
2022/05/14 05:31:47;;;;;;;4.72;2.60;;;19.50;57.80;;;;;;5038007;28;20028;-69
2022/05/14 05:34:13;;;;;;;5.32;3.00;;;19.50;57.80;;;;;;5036885;28;20511;-69
2022/05/14 05:36:38;;;;;;;4.88;2.70;;;19.50;57.80;;;;;;5035721;28;20025;-69
2022/05/14 05:39:04;;;;;;;6.97;3.05;;;19.50;57.80;;;;;;5046106;28;20060;-69
2022/05/14 05:41:30;;;;;;;8.18;3.22;;;19.50;57.80;;;;;;5037455;28;20057;-69
2022/05/14 05:43:55;;;;;;;5.70;3.10;;;19.50;57.90;;;;;;5035026;28;20409;-69
2022/05/14 05:46:21;;;;;;;5.85;3.13;;;19.50;57.90;;;;;;5039495;28;20096;-69
2022/05/14 05:48:47;;;;;;;7.13;3.00;;;19.50;57.90;;;;;;5040600;28;20025;-69
2022/05/14 05:51:12;;;;;;;5.35;2.70;;;19.50;57.80;;;;;;5040280;28;20043;-69
2022/05/14 05:59:07;;;;;;;6.90;3.08;;;19.50;57.80;;;;;;5040642;28;20051;-69
2022/05/14 06:01:32;;;;;;;5.82;2.80;;;19.50;57.90;;;;;;5039111;28;20538;-69
2022/05/14 06:03:58;;;;;;;6.32;2.70;;;19.50;58.20;;;;;;5039098;28;20116;-69
2022/05/14 06:06:24;;;;;;;8.10;2.85;;;19.50;58.20;;;;;;5038026;28;20067;-73
2022/05/14 06:08:50;;;;;;;6.15;2.78;;;19.40;58.30;;;;;;5041510;28;20026;-73
2022/05/14 06:11:16;;;;;;;6.35;2.72;;;19.40;58.30;;;;;;5047290;28;20135;-74
2022/05/14 06:13:43;;;;;;;9.05;2.95;;;19.50;58.60;;;;;;5041713;28;20025;-73
2022/05/14 06:16:12;;;;;;;11.05;3.50;;;19.50;58.60;;;;;;5033307;28;20453;-73
2022/05/14 06:18:38;;;;;;;12.52;3.70;;;19.50;59.00;;;;;;5040666;28;20060;-73
2022/05/14 06:21:06;;;;;;;7.13;2.90;;;19.50;61.10;;;;;;5034278;28;20071;-73
2022/05/14 06:23:32;;;;;;;7.70;3.00;;;19.50;60.00;;;;;;5038306;28;20031;-74
2022/05/14 06:25:58;;;;;;;6.75;2.67;;;19.60;59.20;;;;;;5037508;28;20029;-73
2022/05/14 06:28:24;;;;;;;7.75;2.88;;;19.50;59.00;;;;;;5033206;28;20086;-72
2022/05/14 06:30:50;;;;;;;11.82;2.83;;;19.60;59.00;;;;;;5038160;28;20020;-73
2022/05/14 06:33:16;;;;;;;16.70;3.13;;;19.60;59.40;;;;;;5034035;28;20504;-73
2022/05/14 06:35:41;;;;;;;9.88;3.20;;;19.60;59.40;;;;;;5032385;28;20083;-73
2022/05/14 06:38:07;;;;;;;7.57;3.05;;;19.60;59.50;;;;;;5035350;28;20493;-73
2022/05/14 06:40:33;;;;;;;11.95;2.97;;;19.50;59.30;;;;;;5034406;28;20100;-73
2022/05/14 06:42:59;;;;;;;8.77;2.75;;;19.50;59.50;;;;;;5033571;28;20711;-73
2022/05/14 06:45:24;;;;;;;7.60;2.70;;;19.50;59.50;;;;;;5033665;28;20049;-73
2022/05/14 06:47:50;;;;;;;9.82;3.47;;;19.50;59.50;;;;;;5033537;28;20064;-72
2022/05/14 06:50:16;;;;;;;12.68;2.72;;;19.60;59.30;;;;;;5032786;28;20116;-73
2022/05/14 06:52:43;;;;;;;9.57;2.90;;;19.60;59.30;;;;;;5036489;28;20120;-73
2022/05/14 06:55:10;;;;;;;8.52;3.00;;;19.60;59.20;;;;;;5039934;28;20032;-73
2022/05/14 06:57:35;;;;;;;8.70;2.60;;;19.60;59.10;;;;;;5033445;28;20116;-73
2022/05/14 07:00:03;;;;;;;7.68;2.60;;;19.60;59.10;;;;;;5036965;28;20101;-72
2022/05/14 07:02:28;;;;;;;10.60;3.03;;;19.60;59.10;;;;;;5067696;28;20517;-72
2022/05/14 07:07:38;;;;;;;7.38;2.67;;;19.60;59.10;;;;;;5038595;28;20547;-73
2022/05/14 07:10:04;;;;;;;9.18;2.80;;;19.60;59.10;;;;;;5036116;28;20037;-73
2022/05/14 07:12:30;;;;;;;9.27;2.80;;;19.60;59.10;;;;;;5033249;28;20037;-73
2022/05/14 07:14:56;;;;;;;10.15;2.97;;;19.60;60.10;;;;;;5034026;28;20510;-73
2022/05/14 07:17:22;;;;;;;11.52;2.95;;;19.60;59.10;;;;;;5036899;28;20068;-73
2022/05/14 07:19:49;;;;;;;10.98;3.05;;;19.60;59.00;;;;;;5035186;28;20045;-73
2022/05/14 07:22:15;;;;;;;8.40;2.83;;;19.60;59.10;;;;;;5036267;28;20036;-73
2022/05/14 07:24:41;;;;;;;8.15;2.90;;;19.60;59.00;;;;;;5034303;28;20116;-73
2022/05/14 07:27:11;;;;;;;11.05;3.03;;;19.60;59.00;;;;;;5036483;28;20025;-73
2022/05/14 07:29:37;;;;;;;7.93;2.90;;;19.60;59.00;;;;;;5035020;28;20030;-73
2022/05/14 07:32:03;;;;;;;7.85;2.80;;;19.60;59.00;;;;;;5036134;28;20100;-73
2022/05/14 07:34:29;;;;;;;12.13;2.75;;;19.60;59.10;;;;;;5037956;28;20033;-72
2022/05/14 07:36:58;;;;;;;8.15;2.88;;;19.60;59.10;;;;;;5036981;28;20456;-73
2022/05/14 07:39:25;;;;;;;8.40;2.55;;;19.60;59.10;;;;;;5042170;28;20045;-73
2022/05/14 07:41:53;;;;;;;8.70;2.78;;;19.60;59.00;;;;;;5043838;28;20072;-73
2022/05/14 07:44:21;;;;;;;8.60;2.80;;;19.60;59.00;;;;;;5039603;28;20035;-73
2022/05/14 07:46:47;;;;;;;7.13;2.80;;;19.60;59.00;;;;;;5035931;28;20159;-73
2022/05/14 07:49:13;;;;;;;8.23;2.38;;;19.60;59.10;;;;;;5036168;28;20036;-73
2022/05/14 07:51:39;;;;;;;9.25;2.92;;;19.70;59.00;;;;;;5042785;28;20063;-73
2022/05/14 07:54:05;;;;;;;8.10;2.88;;;19.60;59.00;;;;;;5033859;28;20057;-73
2022/05/14 07:56:31;;;;;;;6.25;2.38;;;19.60;59.00;;;;;;5036583;28;20033;-73
2022/05/14 07:58:56;;;;;;;6.30;2.78;;;19.60;59.00;;;;;;5035635;28;20533;-73
2022/05/14 08:01:22;;;;;;;7.55;2.60;;;19.70;59.00;;;;;;5036460;28;20041;-73
2022/05/14 08:03:48;;;;;;;9.02;2.50;;;19.70;59.00;;;;;;5033222;28;20052;-73
2022/05/14 08:06:15;;;;;;;7.22;2.75;;;19.70;59.00;;;;;;5031661;28;20055;-73
2022/05/14 08:08:41;;;;;;;6.88;2.60;;;19.70;58.90;;;;;;5034145;28;20034;-73
2022/05/14 08:11:07;;;;;;;7.25;2.72;;;19.70;58.90;;;;;;5037733;28;20391;-73
2022/05/14 08:13:34;;;;;;;6.88;2.60;;;19.70;58.80;;;;;;5034262;28;20029;-73
2022/05/14 08:16:00;;;;;;;7.05;2.15;;;19.80;58.80;;;;;;5033612;28;20029;-73
2022/05/14 08:18:25;;;;;;;6.18;2.50;;;19.70;58.80;;;;;;5034394;28;20453;-73
2022/05/14 08:20:51;;;;;;;7.28;2.67;;;19.80;58.70;;;;;;5040347;28;20037;-73
2022/05/14 08:26:01;;;;;;;5.23;2.37;;;19.80;58.70;;;;;;5037923;28;20024;-73
2022/05/14 08:28:27;;;;;;;6.78;2.78;;;19.80;58.70;;;;;;5035397;28;20284;-73
2022/05/14 08:30:53;;;;;;;6.25;2.50;;;19.80;58.60;;;;;;5035024;28;20021;-73
2022/05/14 08:33:19;;;;;;;6.15;2.60;;;19.80;58.50;;;;;;5030809;28;20029;-73
2022/05/14 08:35:45;;;;;;;9.00;2.72;;;19.80;58.40;;;;;;5035322;28;20447;-72
2022/05/14 08:38:12;;;;;;;7.90;2.70;;;19.80;58.70;;;;;;5032042;28;20075;-73
2022/05/14 08:40:55;;;;;;;6.80;2.67;;;19.90;58.70;;;;;;5033953;28;20053;-73
2022/05/14 08:43:54;;;;;;;7.53;2.70;;;19.90;58.70;;;;;;5037411;28;20028;-73
2022/05/14 08:46:21;;;;;;;7.75;2.60;;;19.90;58.80;;;;;;5021255;28;20037;-73
2022/05/14 08:48:49;;;;;;;6.20;2.20;;;19.90;58.80;;;;;;5023511;28;20030;-73
2022/05/14 08:51:16;;;;;;;7.75;2.63;;;19.90;58.70;;;;;;5008946;28;23605;-73
2022/05/14 08:53:42;;;;;;;5.70;2.40;;;19.90;58.60;;;;;;5025683;28;20032;-73
2022/05/14 08:56:20;;;;;;;6.75;2.70;;;20.00;58.70;;;;;;5009308;28;20029;-73
2022/05/14 08:58:55;;;;;;;7.03;2.50;;;20.00;59.20;;;;;;5024431;28;20480;-73
2022/05/14 09:01:23;;;;;;;5.60;2.40;;;20.00;58.70;;;;;;5023601;28;20091;-73
2022/05/14 09:03:49;;;;;;;7.22;2.60;;;20.00;58.70;;;;;;5004876;28;20029;-73
2022/05/14 09:06:14;;;;;;;7.53;2.70;;;20.00;58.70;;;;;;5021871;28;23930;-73
2022/05/14 09:08:40;;;;;;;7.13;2.72;;;20.00;58.50;;;;;;5026979;28;20113;-73
2022/05/14 09:11:11;;;;;;;7.32;2.22;;;20.00;58.70;;;;;;5025080;28;20046;-73
2022/05/14 09:13:44;;;;;;;7.43;2.70;;;20.00;58.60;;;;;;5026384;28;20032;-73
2022/05/14 09:16:24;;;;;;;5.75;2.42;;;20.00;58.50;;;;;;5028350;28;20045;-73
2022/05/14 09:18:49;;;;;;;5.88;2.40;;;20.00;58.50;;;;;;5008407;28;20140;-73
2022/05/14 09:21:23;;;;;;;6.38;2.55;;;20.00;58.50;;;;;;5029019;28;20057;-73
2022/05/14 09:23:56;;;;;;;4.88;2.30;;;20.00;58.40;;;;;;5033311;28;20120;-73
2022/05/14 09:26:36;;;;;;;7.60;2.90;;;20.10;58.60;;;;;;5038838;28;20025;-73
2022/05/14 09:29:40;;;;;;;6.90;2.67;;;20.10;58.40;;;;;;5068461;28;20041;-73
2022/05/14 09:32:27;;;;;;;6.22;2.53;;;20.20;58.60;;;;;;5040587;28;20051;-73
2022/05/14 09:35:03;;;;;;;7.10;2.42;;;20.20;58.70;;;;;;5040646;28;20037;-73
2022/05/14 09:37:28;;;;;;;5.30;2.40;;;20.20;58.60;;;;;;5041052;28;20179;-74
2022/05/14 09:39:58;;;;;;;5.10;2.38;;;20.20;58.50;;;;;;5044384;28;20518;-73
2022/05/14 09:42:26;;;;;;;6.63;2.50;;;20.20;58.50;;;;;;5032360;28;20041;-72
2022/05/14 09:44:52;;;;;;;5.35;2.38;;;20.30;58.60;;;;;;5037770;28;20045;-73
2022/05/14 09:47:31;;;;;;;6.00;2.40;;;20.30;58.50;;;;;;5042972;28;20040;-73
2022/05/14 09:49:59;;;;;;;6.78;2.45;;;20.30;58.40;;;;;;5032181;28;20029;-73
2022/05/14 09:52:26;;;;;;;7.40;2.65;;;20.30;58.40;;;;;;5033122;28;20556;-73
2022/05/14 09:54:52;;;;;;;5.82;2.60;;;20.30;58.30;;;;;;5035677;28;20494;-73
2022/05/14 09:57:18;;;;;;;5.88;2.35;;;20.30;58.30;;;;;;5025530;28;20032;-73
2022/05/14 10:00:05;;;;;;;7.53;2.85;;;20.30;58.40;;;;;;5032704;28;20033;-72
2022/05/14 10:02:47;;;;;;;7.07;2.80;;;20.30;58.60;;;;;;5038415;28;20037;-73
2022/05/14 10:05:32;;;;;;;8.30;2.88;;;20.30;58.40;;;;;;5037791;28;20030;-73
2022/05/14 10:08:21;;;;;;;11.57;3.30;;;20.30;58.50;;;;;;5038740;28;20037;-73
2022/05/14 10:10:55;;;;;;;10.00;2.90;;;20.20;58.30;;;;;;5034856;28;20457;-73
2022/05/14 10:13:39;;;;;;;9.38;2.90;;;20.10;58.50;;;;;;5035026;28;20083;-73
2022/05/14 10:16:11;;;;;;;9.55;2.90;;;20.10;58.50;;;;;;5036641;28;20124;-73
2022/05/14 10:19:11;;;;;;;11.98;3.10;;;20.20;58.60;;;;;;5043554;28;20116;-73
2022/05/14 10:21:48;;;;;;;10.32;2.85;;;20.20;58.40;;;;;;5034329;28;20047;-73
2022/05/14 10:27:34;;;;;;;8.75;2.75;;;20.30;58.30;;;;;;5044456;28;20079;-73
2022/05/14 10:30:02;;;;;;;6.97;2.42;;;20.20;58.40;;;;;;5035221;28;20022;-73
2022/05/14 10:32:30;;;;;;;7.35;2.42;;;20.30;58.40;;;;;;5070123;28;20095;-73
2022/05/14 10:35:19;;;;;;;9.63;2.85;;;20.20;58.30;;;;;;5037299;28;20021;-73
2022/05/14 10:37:59;;;;;;;9.23;2.80;;;20.30;58.50;;;;;;5037177;28;20037;-73
2022/05/14 10:40:34;;;;;;;11.55;3.03;;;20.30;58.70;;;;;;5044497;28;20029;-73
2022/05/14 10:43:14;;;;;;;11.43;2.75;;;20.30;59.10;;;;;;5033970;28;20465;-73
2022/05/14 10:45:42;;;;;;;11.30;2.67;;;20.40;59.00;;;;;;5037971;28;20112;-73
2022/05/14 10:48:35;;;;;;;9.73;2.60;;;20.40;58.80;;;;;;5041679;28;20120;-73
2022/05/14 10:51:02;;;;;;;12.65;2.75;;;20.40;58.60;;;;;;5040331;28;20548;-73
2022/05/14 10:53:28;;;;;;;9.07;2.65;;;20.40;58.80;;;;;;5035204;28;20021;-73
2022/05/14 10:56:01;;;;;;;11.10;2.55;;;20.40;58.80;;;;;;5034699;28;20532;-73
2022/05/14 10:58:51;;;;;;;10.77;2.60;;;20.40;58.80;;;;;;5050452;28;20041;-73
2022/05/14 11:01:27;;;;;;;9.90;2.50;;;20.50;58.50;;;;;;5038405;28;20029;-73
2022/05/14 11:03:55;;;;;;;9.07;2.53;;;20.50;58.30;;;;;;5044232;28;20032;-73
2022/05/14 11:06:33;;;;;;;9.60;2.28;;;20.50;58.30;;;;;;5037658;28;20025;-73
2022/05/14 11:08:58;;;;;;;6.75;2.15;;;20.50;58.30;;;;;;5039975;28;20092;-73
2022/05/14 11:11:28;;;;;;;10.50;2.05;;;20.50;58.20;;;;;;5037403;28;20021;-73
2022/05/14 11:14:02;;;;;;;9.57;2.35;;;20.50;57.80;;;;;;5040438;28;20112;-73
2022/05/14 11:16:43;;;;;;;7.50;2.20;;;20.50;57.70;;;;;;5033164;28;20110;-73
2022/05/14 11:19:09;;;;;;;8.50;2.03;;;20.50;57.60;;;;;;5066592;28;20548;-73
2022/05/14 11:21:35;;;;;;;10.68;2.60;;;20.60;57.60;;;;;;5042669;28;20028;-73
2022/05/14 11:24:00;;;;;;;12.57;2.58;;;20.60;57.50;;;;;;5042337;28;20036;-73
2022/05/14 11:26:27;;;;;;;9.27;2.40;;;20.60;57.50;;;;;;5037109;28;20017;-73
2022/05/14 11:29:12;;;;;;;10.05;2.47;;;20.60;57.30;;;;;;5027707;28;20028;-73
2022/05/14 11:31:40;;;;;;;6.55;1.85;;;20.60;57.30;;;;;;5036053;28;20021;-73
2022/05/14 11:34:23;;;;;;;10.00;2.38;;;20.50;57.30;;;;;;5025173;28;20039;-73
2022/05/14 11:36:51;;;;;;;10.35;2.10;;;20.60;57.20;;;;;;5034405;28;20040;-73
2022/05/14 11:39:37;;;;;;;10.32;2.17;;;20.60;57.10;;;;;;5063743;28;20084;-73
2022/05/14 11:42:30;;;;;;;8.07;2.03;;;20.60;57.00;;;;;;5067135;28;20037;-73
2022/05/14 11:44:57;;;;;;;8.40;2.08;;;20.60;56.60;;;;;;5028696;28;20556;-73
2022/05/14 11:47:31;;;;;;;9.95;2.08;;;20.60;56.50;;;;;;5034129;28;20067;-73
2022/05/14 11:49:57;;;;;;;12.13;2.63;;;20.60;56.80;;;;;;5034644;28;20022;-73
2022/05/14 11:52:46;;;;;;;8.40;2.00;;;20.60;56.80;;;;;;5067002;28;20025;-71
2022/05/14 11:55:22;;;;;;;11.40;2.10;;;20.60;56.90;;;;;;5032609;28;20030;-73
2022/05/14 11:58:14;;;;;;;10.90;2.38;;;20.60;56.90;;;;;;5035808;28;20469;-73
2022/05/14 12:00:40;;;;;;;8.75;2.20;;;20.60;57.00;;;;;;5035635;28;20401;-73
2022/05/14 12:03:28;;;;;;;10.85;2.25;;;20.60;57.10;;;;;;5035221;28;20029;-73
2022/05/14 12:06:09;;;;;;;9.65;2.20;;;20.60;57.20;;;;;;5042278;28;20071;-73
2022/05/14 12:08:41;;;;;;;8.18;2.08;;;20.70;57.30;;;;;;5036498;28;20029;-73
2022/05/14 12:11:30;;;;;;;7.72;2.17;;;20.70;57.30;;;;;;5032699;28;20029;-73
2022/05/14 12:14:08;;;;;;;8.30;2.35;;;20.70;57.50;;;;;;5037028;28;20032;-73
2022/05/14 12:16:36;;;;;;;8.30;1.98;;;20.70;57.40;;;;;;5035374;28;20733;-72
2022/05/14 12:19:03;;;;;;;10.02;2.03;;;20.70;57.30;;;;;;5037112;28;20030;-73
2022/05/14 12:21:29;;;;;;;9.35;2.05;;;20.70;57.40;;;;;;5030158;28;20491;-73
2022/05/14 12:23:54;;;;;;;18.02;2.50;;;20.70;57.40;;;;;;5032627;28;20033;-73
2022/05/14 12:26:33;;;;;;;20.00;2.97;;;20.70;57.30;;;;;;5037941;28;20049;-73
2022/05/14 12:29:19;;;;;;;15.73;2.33;;;20.70;57.10;;;;;;5036010;28;20025;-73
2022/05/14 12:34:36;;;;;;;10.95;2.20;;;20.70;57.10;;;;;;5034871;28;20438;-72
2022/05/14 12:37:03;;;;;;;11.25;2.45;;;20.70;57.20;;;;;;5033551;28;20104;-73
2022/05/14 12:39:30;;;;;;;10.85;2.38;;;20.70;57.30;;;;;;5034931;28;20055;-73
2022/05/14 12:42:05;;;;;;;9.02;2.00;;;20.70;57.30;;;;;;5043320;28;20027;-73
2022/05/14 12:44:42;;;;;;;11.63;2.30;;;20.60;57.30;;;;;;5056022;28;20087;-73
2022/05/14 12:47:08;;;;;;;10.77;2.03;;;20.60;57.30;;;;;;5035634;28;20032;-73
2022/05/14 12:49:44;;;;;;;13.82;2.70;;;20.70;57.40;;;;;;5071552;28;20021;-73
2022/05/14 12:52:14;;;;;;;11.32;2.35;;;20.60;57.50;;;;;;5035316;28;20029;-72
2022/05/14 12:54:57;;;;;;;10.50;2.25;;;20.60;57.50;;;;;;5043463;28;20053;-73
2022/05/14 12:57:23;;;;;;;9.20;2.20;;;20.60;57.50;;;;;;5044094;28;21031;-73
2022/05/14 12:59:49;;;;;;;9.65;1.92;;;20.60;57.60;;;;;;5042795;28;20036;-72
2022/05/14 13:02:26;;;;;;;11.65;2.33;;;20.60;57.60;;;;;;5037204;28;20401;-72
2022/05/14 13:05:13;;;;;;;9.73;2.20;;;20.60;57.70;;;;;;5040931;28;20079;-73
2022/05/14 13:07:54;;;;;;;11.50;2.17;;;20.60;57.80;;;;;;5036194;28;20052;-73
2022/05/14 13:10:24;;;;;;;12.02;2.50;;;20.60;57.80;;;;;;5053367;28;20121;-72
2022/05/14 13:13:02;;;;;;;10.60;2.50;;;20.70;57.90;;;;;;5069759;28;20379;-73
2022/05/14 13:15:36;;;;;;;12.85;2.75;;;20.60;57.90;;;;;;5041675;28;20494;-73
2022/05/14 13:18:24;;;;;;;14.32;2.50;;;20.60;57.90;;;;;;5029282;28;20457;-73
2022/05/14 13:21:04;;;;;;;12.93;2.75;;;20.60;57.90;;;;;;5038384;28;20040;-73